createdAt,value
2023-05-31T00:00:30.894Z,26.46
2023-05-31T00:01:30.933Z,26.45
2023-05-31T00:02:31.142Z,26.45
2023-05-31T00:03:31.122Z,26.45
2023-05-31T00:04:31.126Z,26.45
2023-05-31T00:05:31.192Z,26.45
2023-05-31T00:06:31.220Z,26.43
2023-05-31T00:07:31.276Z,26.42
2023-05-31T00:08:31.356Z,26.43
2023-05-31T00:09:31.398Z,26.42
2023-05-31T00:10:31.446Z,26.45
2023-05-31T00:11:31.508Z,26.43
2023-05-31T00:12:31.565Z,26.43
2023-05-31T00:13:31.599Z,26.45
2023-05-31T00:14:31.677Z,26.43
2023-05-31T00:15:31.708Z,26.43
2023-05-31T00:17:03.377Z,26.42
2023-05-31T00:18:32.857Z,26.45
2023-05-31T00:19:31.757Z,26.43
2023-05-31T00:20:31.806Z,26.42
2023-05-31T00:21:31.722Z,26.45
2023-05-31T00:22:31.725Z,26.43
2023-05-31T00:23:31.771Z,26.45
2023-05-31T00:24:31.704Z,26.42
2023-05-31T00:25:31.706Z,26.43
2023-05-31T00:26:31.726Z,26.39
2023-05-31T00:27:31.736Z,26.43
2023-05-31T00:28:31.813Z,26.45
2023-05-31T00:29:31.718Z,26.43
2023-05-31T00:30:31.709Z,26.42
2023-05-31T00:31:31.774Z,26.42
2023-05-31T00:32:31.693Z,26.42
2023-05-31T00:33:31.664Z,26.40
2023-05-31T00:34:31.681Z,26.42
2023-05-31T00:35:31.658Z,26.42
2023-05-31T00:36:31.703Z,26.40
2023-05-31T00:37:31.631Z,26.40
2023-05-31T00:38:31.635Z,26.40
2023-05-31T00:39:31.721Z,26.40
2023-05-31T00:40:31.747Z,26.40
2023-05-31T00:41:31.840Z,26.42
2023-05-31T00:42:31.905Z,26.39
2023-05-31T00:43:31.913Z,26.39
2023-05-31T00:44:32.009Z,26.40
2023-05-31T00:45:32.039Z,26.40
2023-05-31T00:46:32.114Z,26.40
2023-05-31T00:47:32.207Z,26.39
2023-05-31T00:48:32.243Z,26.40
2023-05-31T00:49:32.299Z,26.38
2023-05-31T00:50:32.336Z,26.40
2023-05-31T00:51:32.401Z,26.42
2023-05-31T00:52:32.491Z,26.40
2023-05-31T00:53:32.536Z,26.39
2023-05-31T00:54:32.571Z,26.39
2023-05-31T00:55:32.647Z,26.39
2023-05-31T00:56:32.702Z,26.40
2023-05-31T00:57:32.769Z,26.36
2023-05-31T00:58:32.846Z,26.36
2023-05-31T00:59:32.912Z,26.39
2023-05-31T01:00:32.941Z,26.38
2023-05-31T01:01:33.008Z,26.38
2023-05-31T01:02:33.108Z,26.38
2023-05-31T01:03:33.161Z,26.38
2023-05-31T01:04:33.195Z,26.40
2023-05-31T01:05:33.254Z,26.39
2023-05-31T01:06:33.668Z,26.38
2023-05-31T01:07:33.409Z,26.36
2023-05-31T01:08:33.455Z,26.36
2023-05-31T01:09:33.511Z,26.38
2023-05-31T01:10:33.569Z,26.38
2023-05-31T01:11:33.649Z,26.38
2023-05-31T01:12:33.691Z,26.38
2023-05-31T01:13:33.721Z,26.38
2023-05-31T01:14:33.757Z,26.36
2023-05-31T01:15:33.816Z,26.38
2023-05-31T01:16:33.899Z,26.38
2023-05-31T01:17:33.945Z,26.36
2023-05-31T01:18:34.011Z,26.38
2023-05-31T01:19:34.056Z,26.35
2023-05-31T01:20:34.319Z,26.35
2023-05-31T01:21:34.108Z,26.36
2023-05-31T01:22:34.174Z,26.35
2023-05-31T01:23:35.354Z,26.35
2023-05-31T01:24:34.178Z,26.36
2023-05-31T01:25:34.178Z,26.35
2023-05-31T01:26:34.171Z,26.36
2023-05-31T01:27:34.156Z,26.36
2023-05-31T01:28:34.137Z,26.36
2023-05-31T01:29:34.112Z,26.36
2023-05-31T01:30:34.142Z,26.32
2023-05-31T01:31:34.131Z,26.36
2023-05-31T01:32:34.202Z,26.34
2023-05-31T01:33:34.113Z,26.35
2023-05-31T01:34:34.102Z,26.34
2023-05-31T01:35:34.083Z,26.34
2023-05-31T01:36:34.114Z,26.35
2023-05-31T01:37:34.064Z,26.35
2023-05-31T01:38:34.077Z,26.35
2023-05-31T01:39:34.092Z,26.35
2023-05-31T01:40:34.046Z,26.34
2023-05-31T01:41:34.045Z,26.36
2023-05-31T01:42:34.056Z,26.34
2023-05-31T01:43:34.065Z,26.34
2023-05-31T01:44:34.054Z,26.35
2023-05-31T01:45:34.050Z,26.34
2023-05-31T01:46:34.024Z,26.35
2023-05-31T01:47:34.132Z,26.35
2023-05-31T01:48:34.004Z,26.34
2023-05-31T01:49:33.979Z,26.35
2023-05-31T01:50:34.015Z,26.35
2023-05-31T01:51:34.016Z,26.34
2023-05-31T01:52:33.985Z,26.35
2023-05-31T01:53:33.974Z,26.34
2023-05-31T01:54:33.950Z,26.31
2023-05-31T01:55:33.964Z,26.35
2023-05-31T01:56:33.944Z,26.32
2023-05-31T01:57:33.931Z,26.31
2023-05-31T01:58:33.911Z,26.32
2023-05-31T01:59:33.931Z,26.35
2023-05-31T02:00:33.925Z,26.32
2023-05-31T02:01:33.982Z,26.31
2023-05-31T02:02:33.970Z,26.32
2023-05-31T02:03:33.959Z,26.32
2023-05-31T02:04:33.907Z,26.31
2023-05-31T02:05:33.894Z,26.35
2023-05-31T02:06:33.886Z,26.32
2023-05-31T02:07:33.881Z,26.31
2023-05-31T02:08:33.856Z,26.34
2023-05-31T02:09:33.860Z,26.31
2023-05-31T02:10:33.851Z,26.31
2023-05-31T02:11:33.851Z,26.32
2023-05-31T02:12:33.843Z,26.29
2023-05-31T02:13:33.828Z,26.31
2023-05-31T02:14:33.823Z,26.32
2023-05-31T02:15:33.847Z,26.31
2023-05-31T02:16:33.840Z,26.29
2023-05-31T02:17:33.826Z,26.31
2023-05-31T02:18:33.812Z,26.31
2023-05-31T02:19:33.802Z,26.29
2023-05-31T02:20:33.885Z,26.29
2023-05-31T02:21:33.761Z,26.31
2023-05-31T02:22:33.796Z,26.29
2023-05-31T02:23:33.805Z,26.29
2023-05-31T02:24:33.783Z,26.29
2023-05-31T02:25:33.848Z,26.29
2023-05-31T02:26:33.855Z,26.31
2023-05-31T02:27:33.860Z,26.31
2023-05-31T02:28:33.867Z,26.28
2023-05-31T02:29:33.874Z,26.29
2023-05-31T02:30:33.879Z,26.29
2023-05-31T02:31:33.945Z,26.28
2023-05-31T02:32:33.916Z,26.29
2023-05-31T02:33:33.899Z,26.29
2023-05-31T02:34:33.919Z,26.28
2023-05-31T02:35:33.914Z,26.29
2023-05-31T02:36:33.937Z,26.27
2023-05-31T02:37:33.925Z,26.29
2023-05-31T02:38:33.934Z,26.29
2023-05-31T02:39:33.944Z,26.28
2023-05-31T02:40:33.946Z,26.27
2023-05-31T02:41:33.936Z,26.29
2023-05-31T02:42:33.966Z,26.28
2023-05-31T02:43:33.983Z,26.29
2023-05-31T02:44:33.971Z,26.28
2023-05-31T02:45:33.991Z,26.27
2023-05-31T02:46:34.036Z,26.28
2023-05-31T02:47:33.965Z,26.29
2023-05-31T02:48:33.974Z,26.27
2023-05-31T02:49:33.990Z,26.28
2023-05-31T02:50:33.971Z,26.28
2023-05-31T02:51:33.986Z,26.27
2023-05-31T02:52:33.987Z,26.27
2023-05-31T02:53:33.959Z,26.27
2023-05-31T02:54:33.977Z,26.29
2023-05-31T02:55:34.023Z,26.27
2023-05-31T02:56:34.007Z,26.27
2023-05-31T02:57:34.027Z,26.27
2023-05-31T02:58:34.032Z,26.25
2023-05-31T02:59:34.036Z,26.24
2023-05-31T03:00:34.048Z,26.27
2023-05-31T03:01:34.087Z,26.25
2023-05-31T03:02:34.108Z,26.27
2023-05-31T03:03:34.107Z,26.27
2023-05-31T03:04:34.029Z,26.27
2023-05-31T03:05:34.055Z,26.27
2023-05-31T03:06:34.092Z,26.27
2023-05-31T03:07:34.054Z,26.25
2023-05-31T03:08:34.066Z,26.25
2023-05-31T03:09:34.064Z,26.25
2023-05-31T03:10:34.058Z,26.27
2023-05-31T03:11:34.074Z,26.25
2023-05-31T03:12:34.089Z,26.25
2023-05-31T03:13:34.085Z,26.24
2023-05-31T03:14:34.099Z,26.27
2023-05-31T03:15:34.087Z,26.24
2023-05-31T03:16:34.144Z,26.25
2023-05-31T03:17:34.137Z,26.27
2023-05-31T03:18:34.123Z,26.25
2023-05-31T03:19:34.116Z,26.25
2023-05-31T03:20:34.231Z,26.25
2023-05-31T03:21:34.092Z,26.27
2023-05-31T03:22:34.072Z,26.27
2023-05-31T03:23:34.090Z,26.25
2023-05-31T03:24:34.121Z,26.24
2023-05-31T03:25:34.116Z,26.24
2023-05-31T03:26:34.136Z,26.24
2023-05-31T03:27:34.145Z,26.28
2023-05-31T03:28:34.153Z,26.22
2023-05-31T03:29:34.156Z,26.24
2023-05-31T03:30:34.165Z,26.25
2023-05-31T03:31:34.232Z,26.25
2023-05-31T03:32:35.475Z,26.24
2023-05-31T03:33:34.187Z,26.22
2023-05-31T03:34:34.204Z,26.24
2023-05-31T03:35:34.192Z,26.22
2023-05-31T03:36:34.193Z,26.22
2023-05-31T03:37:34.168Z,26.25
2023-05-31T03:38:34.166Z,26.22
2023-05-31T03:39:34.181Z,26.24
2023-05-31T03:40:34.157Z,26.24
2023-05-31T03:41:34.133Z,26.22
2023-05-31T03:42:34.142Z,26.24
2023-05-31T03:43:34.148Z,26.22
2023-05-31T03:44:34.118Z,26.24
2023-05-31T03:45:34.119Z,26.24
2023-05-31T03:46:34.149Z,26.24
2023-05-31T03:47:34.114Z,26.24
2023-05-31T03:48:34.093Z,26.24
2023-05-31T03:49:34.098Z,26.22
2023-05-31T03:50:34.089Z,26.24
2023-05-31T03:51:34.078Z,26.24
2023-05-31T03:52:34.064Z,26.24
2023-05-31T03:53:34.056Z,26.24
2023-05-31T03:54:34.058Z,26.24
2023-05-31T03:55:34.071Z,26.24
2023-05-31T03:56:34.035Z,26.24
2023-05-31T03:57:34.034Z,26.25
2023-05-31T03:58:34.049Z,26.25
2023-05-31T03:59:34.019Z,26.25
2023-05-31T04:00:34.002Z,26.24
2023-05-31T04:01:34.021Z,26.25
2023-05-31T04:02:34.109Z,26.24
2023-05-31T04:03:34.117Z,26.25
2023-05-31T04:04:34.071Z,26.27
2023-05-31T04:05:33.984Z,26.28
2023-05-31T04:06:34.009Z,26.25
2023-05-31T04:07:33.988Z,26.28
2023-05-31T04:08:33.955Z,26.27
2023-05-31T04:09:33.956Z,26.28
2023-05-31T04:10:33.970Z,26.28
2023-05-31T04:11:33.945Z,26.27
2023-05-31T04:12:33.951Z,26.29
2023-05-31T04:13:33.949Z,26.29
2023-05-31T04:14:33.920Z,26.29
2023-05-31T04:15:33.898Z,26.28
2023-05-31T04:16:34.016Z,26.29
2023-05-31T04:17:33.935Z,26.32
2023-05-31T04:18:33.876Z,26.32
2023-05-31T04:19:33.896Z,26.31
2023-05-31T04:20:33.939Z,26.34
2023-05-31T04:21:33.903Z,26.35
2023-05-31T04:22:33.853Z,26.35
2023-05-31T04:23:33.862Z,26.32
2023-05-31T04:24:33.834Z,26.36
2023-05-31T04:25:33.858Z,26.35
2023-05-31T04:26:33.833Z,26.36
2023-05-31T04:27:33.818Z,26.38
2023-05-31T04:28:33.807Z,26.36
2023-05-31T04:29:33.844Z,26.38
2023-05-31T04:30:33.948Z,26.38
2023-05-31T04:31:49.951Z,26.39
2023-05-31T04:32:34.914Z,26.42
2023-05-31T04:33:33.783Z,26.40
2023-05-31T04:34:33.807Z,26.40
2023-05-31T04:35:33.748Z,26.42
2023-05-31T04:36:33.772Z,26.40
2023-05-31T04:37:35.850Z,26.43
2023-05-31T04:38:33.763Z,26.45
2023-05-31T04:39:33.770Z,26.43
2023-05-31T04:40:33.768Z,26.46
2023-05-31T04:41:33.740Z,26.46
2023-05-31T04:42:33.733Z,26.47
2023-05-31T04:43:33.717Z,26.49
2023-05-31T04:44:33.705Z,26.50
2023-05-31T04:45:33.898Z,26.49
2023-05-31T04:46:33.724Z,26.50
2023-05-31T04:47:33.698Z,26.50
2023-05-31T04:48:33.690Z,26.52
2023-05-31T04:49:43.534Z,26.53
2023-05-31T04:50:34.672Z,26.53
2023-05-31T04:51:33.674Z,26.50
2023-05-31T04:52:33.692Z,26.50
2023-05-31T04:53:33.645Z,26.50
2023-05-31T04:54:33.662Z,26.53
2023-05-31T04:55:33.642Z,26.55
2023-05-31T04:56:33.625Z,26.56
2023-05-31T04:57:33.611Z,26.55
2023-05-31T04:58:33.606Z,26.56
2023-05-31T04:59:33.618Z,26.56
2023-05-31T05:00:33.663Z,26.56
2023-05-31T05:01:33.689Z,26.57
2023-05-31T05:02:33.772Z,26.59
2023-05-31T05:03:33.865Z,26.56
2023-05-31T05:04:33.857Z,26.59
2023-05-31T05:05:33.861Z,26.62
2023-05-31T05:06:33.975Z,26.62
2023-05-31T05:07:33.973Z,26.55
2023-05-31T05:08:34.056Z,26.59
2023-05-31T05:09:34.095Z,26.57
2023-05-31T05:10:34.152Z,26.52
2023-05-31T05:11:34.188Z,26.59
2023-05-31T05:12:34.224Z,26.56
2023-05-31T05:13:34.273Z,26.56
2023-05-31T05:14:34.275Z,26.56
2023-05-31T05:15:34.314Z,26.56
2023-05-31T05:16:34.332Z,26.60
2023-05-31T05:17:34.389Z,26.53
2023-05-31T05:18:34.334Z,26.56
2023-05-31T05:19:34.352Z,26.56
2023-05-31T05:20:34.371Z,26.53
2023-05-31T05:21:34.375Z,26.55
2023-05-31T05:22:34.369Z,26.52
2023-05-31T05:23:34.470Z,26.52
2023-05-31T05:24:34.367Z,26.53
2023-05-31T05:25:34.385Z,26.53
2023-05-31T05:26:34.402Z,26.52
2023-05-31T05:27:34.393Z,26.53
2023-05-31T05:28:34.419Z,26.55
2023-05-31T05:29:34.444Z,26.55
2023-05-31T05:30:34.472Z,26.55
2023-05-31T05:31:34.592Z,26.56
2023-05-31T05:32:34.608Z,26.53
2023-05-31T05:33:34.566Z,26.56
2023-05-31T05:34:34.572Z,26.56
2023-05-31T05:35:34.562Z,26.57
2023-05-31T05:36:34.638Z,26.56
2023-05-31T05:37:34.652Z,26.57
2023-05-31T05:38:34.911Z,26.57
2023-05-31T05:39:34.911Z,26.62
2023-05-31T05:40:35.635Z,26.57
2023-05-31T05:41:35.451Z,26.62
2023-05-31T05:42:34.936Z,26.63
2023-05-31T05:43:35.037Z,26.63
2023-05-31T05:44:35.061Z,26.64
2023-05-31T05:45:35.047Z,26.66
2023-05-31T05:46:35.164Z,26.64
2023-05-31T05:47:35.196Z,26.66
2023-05-31T05:48:35.234Z,26.69
2023-05-31T05:49:35.290Z,26.69
2023-05-31T05:50:35.357Z,26.70
2023-05-31T05:51:35.397Z,26.74
2023-05-31T05:52:35.461Z,26.73
2023-05-31T05:53:35.512Z,26.77
2023-05-31T05:54:36.872Z,26.67
2023-05-31T05:55:35.635Z,26.74
2023-05-31T05:56:35.709Z,26.62
2023-05-31T05:57:35.751Z,26.66
2023-05-31T05:58:35.804Z,26.71
2023-05-31T05:59:35.858Z,26.73
2023-05-31T06:00:35.901Z,26.81
2023-05-31T06:01:36.466Z,26.84
2023-05-31T06:02:36.040Z,26.88
2023-05-31T06:03:36.147Z,26.95
2023-05-31T06:04:36.113Z,26.99
2023-05-31T06:05:36.127Z,27.04
2023-05-31T06:06:36.152Z,27.08
2023-05-31T06:07:36.162Z,27.08
2023-05-31T06:08:36.189Z,27.11
2023-05-31T06:09:36.196Z,27.11
2023-05-31T06:10:36.260Z,27.15
2023-05-31T06:11:36.273Z,27.15
2023-05-31T06:12:36.266Z,27.16
2023-05-31T06:13:36.324Z,27.18
2023-05-31T06:14:36.350Z,27.24
2023-05-31T06:15:36.350Z,27.25
2023-05-31T06:16:36.510Z,27.26
2023-05-31T06:17:36.392Z,27.28
2023-05-31T06:18:36.392Z,27.26
2023-05-31T06:19:36.440Z,27.29
2023-05-31T06:20:36.667Z,27.29
2023-05-31T06:21:36.854Z,27.29
2023-05-31T06:22:36.597Z,27.32
2023-05-31T06:23:36.664Z,27.35
2023-05-31T06:24:36.657Z,27.32
2023-05-31T06:25:36.613Z,27.35
2023-05-31T06:26:36.655Z,27.35
2023-05-31T06:27:36.659Z,27.37
2023-05-31T06:28:37.918Z,27.37
2023-05-31T06:29:36.755Z,27.39
2023-05-31T06:30:36.811Z,27.42
2023-05-31T06:31:36.828Z,27.42
2023-05-31T06:32:36.850Z,27.43
2023-05-31T06:33:36.830Z,27.42
2023-05-31T06:34:36.853Z,27.45
2023-05-31T06:35:36.900Z,27.46
2023-05-31T06:36:36.936Z,27.46
2023-05-31T06:37:36.948Z,27.47
2023-05-31T06:38:36.997Z,27.49
2023-05-31T06:39:37.016Z,27.50
2023-05-31T06:40:37.056Z,27.47
2023-05-31T06:41:37.101Z,27.52
2023-05-31T06:42:37.125Z,27.53
2023-05-31T06:43:37.175Z,27.53
2023-05-31T06:44:44.125Z,27.54
2023-05-31T06:45:38.442Z,27.53
2023-05-31T06:46:37.526Z,27.57
2023-05-31T06:47:37.550Z,27.58
2023-05-31T06:48:37.588Z,27.58
2023-05-31T06:49:37.663Z,27.58
2023-05-31T06:50:37.705Z,27.57
2023-05-31T06:51:37.726Z,27.57
2023-05-31T06:52:37.713Z,27.60
2023-05-31T06:53:37.754Z,27.60
2023-05-31T06:54:37.769Z,27.60
2023-05-31T06:55:40.023Z,27.58
2023-05-31T06:56:37.871Z,27.58
2023-05-31T06:57:38.404Z,27.54
2023-05-31T06:58:37.873Z,27.43
2023-05-31T06:59:37.894Z,27.45
2023-05-31T07:00:37.852Z,27.35
2023-05-31T07:01:37.998Z,27.43
2023-05-31T07:02:37.866Z,27.45
2023-05-31T07:03:37.966Z,27.47
2023-05-31T07:04:37.938Z,27.45
2023-05-31T07:05:37.956Z,27.47
2023-05-31T07:06:37.959Z,27.53
2023-05-31T07:07:37.981Z,27.56
2023-05-31T07:08:37.993Z,27.60
2023-05-31T07:09:37.990Z,27.61
2023-05-31T07:10:38.071Z,27.64
2023-05-31T07:11:38.069Z,27.67
2023-05-31T07:12:38.100Z,27.70
2023-05-31T07:13:38.081Z,27.71
2023-05-31T07:14:38.149Z,27.74
2023-05-31T07:15:38.363Z,27.74
2023-05-31T07:16:38.386Z,27.77
2023-05-31T07:17:38.294Z,27.78
2023-05-31T07:18:38.274Z,27.74
2023-05-31T07:19:38.350Z,27.74
2023-05-31T07:20:38.398Z,27.75
2023-05-31T07:21:38.415Z,27.75
2023-05-31T07:22:38.461Z,27.75
2023-05-31T07:23:38.467Z,27.75
2023-05-31T07:24:38.475Z,27.77
2023-05-31T07:25:38.484Z,27.77
2023-05-31T07:26:38.512Z,27.75
2023-05-31T07:27:38.560Z,27.77
2023-05-31T07:28:38.564Z,27.72
2023-05-31T07:29:38.607Z,27.70
2023-05-31T07:30:38.642Z,27.68
2023-05-31T07:31:38.672Z,27.49
2023-05-31T07:32:38.787Z,27.52
2023-05-31T07:33:38.719Z,27.56
2023-05-31T07:34:38.673Z,27.56
2023-05-31T07:35:39.677Z,27.57
2023-05-31T07:36:38.666Z,27.60
2023-05-31T07:37:39.166Z,27.63
2023-05-31T07:38:38.647Z,27.64
2023-05-31T07:39:38.636Z,27.64
2023-05-31T07:40:38.632Z,27.64
2023-05-31T07:41:38.928Z,27.67
2023-05-31T07:42:38.619Z,27.68
2023-05-31T07:43:38.605Z,27.68
2023-05-31T07:44:38.617Z,27.67
2023-05-31T07:45:38.589Z,27.68
2023-05-31T07:46:38.610Z,27.65
2023-05-31T07:47:38.601Z,27.65
2023-05-31T07:48:38.647Z,27.65
2023-05-31T07:49:38.581Z,27.58
2023-05-31T07:50:38.633Z,27.57
2023-05-31T07:51:38.931Z,27.52
2023-05-31T07:52:38.570Z,27.58
2023-05-31T07:53:38.589Z,27.57
2023-05-31T07:54:38.543Z,27.65
2023-05-31T07:55:38.548Z,27.65
2023-05-31T07:56:39.444Z,27.71
2023-05-31T07:57:38.521Z,27.71
2023-05-31T07:58:38.514Z,27.74
2023-05-31T07:59:39.427Z,27.71
2023-05-31T08:00:38.492Z,27.75
2023-05-31T08:01:38.937Z,27.75
2023-05-31T08:02:38.791Z,27.78
2023-05-31T08:03:38.786Z,27.81
2023-05-31T08:04:39.648Z,27.84
2023-05-31T08:05:38.640Z,27.74
2023-05-31T08:06:38.630Z,27.75
2023-05-31T08:07:38.642Z,27.84
2023-05-31T08:08:38.635Z,27.87
2023-05-31T08:09:38.639Z,27.88
2023-05-31T08:10:38.605Z,27.91
2023-05-31T08:11:38.583Z,27.91
2023-05-31T08:12:38.625Z,27.95
2023-05-31T08:13:38.657Z,27.98
2023-05-31T08:14:38.730Z,28.01
2023-05-31T08:15:38.793Z,28.01
2023-05-31T08:16:38.974Z,28.03
2023-05-31T08:17:38.951Z,28.02
2023-05-31T08:18:38.994Z,28.05
2023-05-31T08:19:39.006Z,28.02
2023-05-31T08:20:39.155Z,28.06
2023-05-31T08:21:39.428Z,28.06
2023-05-31T08:22:39.121Z,28.05
2023-05-31T08:23:39.150Z,28.11
2023-05-31T08:24:39.234Z,28.09
2023-05-31T08:25:39.278Z,28.12
2023-05-31T08:26:39.436Z,28.09
2023-05-31T08:27:39.435Z,28.12
2023-05-31T08:28:39.482Z,28.15
2023-05-31T08:29:39.526Z,28.15
2023-05-31T08:30:39.678Z,28.15
2023-05-31T08:31:40.100Z,28.16
2023-05-31T08:32:39.697Z,28.15
2023-05-31T08:33:39.756Z,28.19
2023-05-31T08:34:39.804Z,28.19
2023-05-31T08:35:39.860Z,28.22
2023-05-31T08:36:39.922Z,28.22
2023-05-31T08:37:39.945Z,28.22
2023-05-31T08:38:39.982Z,28.26
2023-05-31T08:39:40.046Z,28.26
2023-05-31T08:40:40.092Z,28.23
2023-05-31T08:41:40.153Z,28.27
2023-05-31T08:42:40.126Z,28.26
2023-05-31T08:43:40.211Z,28.26
2023-05-31T08:44:40.249Z,28.29
2023-05-31T08:45:40.319Z,28.23
2023-05-31T08:46:40.422Z,28.22
2023-05-31T08:47:40.441Z,28.22
2023-05-31T08:48:40.480Z,28.18
2023-05-31T08:49:40.551Z,28.15
2023-05-31T08:50:40.596Z,28.09
2023-05-31T08:51:40.936Z,28.08
2023-05-31T08:52:40.653Z,28.03
2023-05-31T08:53:40.667Z,28.01
2023-05-31T08:54:40.683Z,27.96
2023-05-31T08:55:40.717Z,27.91
2023-05-31T08:56:44.144Z,27.87
2023-05-31T08:57:40.695Z,27.83
2023-05-31T08:58:40.726Z,27.80
2023-05-31T08:59:40.742Z,27.74
2023-05-31T09:00:40.714Z,27.71
2023-05-31T09:01:40.722Z,27.70
2023-05-31T09:02:40.694Z,27.65
2023-05-31T09:03:40.653Z,27.65
2023-05-31T09:04:40.719Z,27.60
2023-05-31T09:05:40.677Z,27.57
2023-05-31T09:06:40.632Z,27.57
2023-05-31T09:07:40.654Z,27.53
2023-05-31T09:08:40.651Z,27.50
2023-05-31T09:09:40.632Z,27.47
2023-05-31T09:10:40.649Z,27.47
2023-05-31T09:11:40.640Z,27.45
2023-05-31T09:12:40.607Z,27.42
2023-05-31T09:13:40.607Z,27.39
2023-05-31T09:14:40.589Z,27.37
2023-05-31T09:15:40.589Z,27.35
2023-05-31T09:16:40.633Z,27.32
2023-05-31T09:17:40.676Z,27.32
2023-05-31T09:18:40.670Z,27.30
2023-05-31T09:19:40.548Z,27.30
2023-05-31T09:20:40.558Z,27.25
2023-05-31T09:21:40.577Z,27.24
2023-05-31T09:22:40.542Z,27.22
2023-05-31T09:23:40.548Z,27.22
2023-05-31T09:24:40.542Z,27.19
2023-05-31T09:25:40.523Z,27.19
2023-05-31T09:26:40.532Z,27.18
2023-05-31T09:27:40.538Z,27.18
2023-05-31T09:28:40.515Z,27.12
2023-05-31T09:29:40.523Z,27.13
2023-05-31T09:30:40.511Z,27.11
2023-05-31T09:31:40.952Z,27.12
2023-05-31T09:32:40.518Z,27.09
2023-05-31T09:33:40.488Z,27.08
2023-05-31T09:34:40.468Z,27.09
2023-05-31T09:35:40.469Z,27.06
2023-05-31T09:36:40.973Z,27.06
2023-05-31T09:37:40.463Z,27.06
2023-05-31T09:38:40.456Z,27.02
2023-05-31T09:39:40.431Z,27.05
2023-05-31T09:40:40.431Z,27.04
2023-05-31T09:41:40.406Z,27.01
2023-05-31T09:42:40.404Z,27.02
2023-05-31T09:43:40.397Z,27.01
2023-05-31T09:44:40.381Z,27.04
2023-05-31T09:45:40.430Z,27.01
2023-05-31T09:46:40.401Z,26.98
2023-05-31T09:47:40.498Z,26.99
2023-05-31T09:48:40.484Z,26.98
2023-05-31T09:49:40.539Z,26.97
2023-05-31T09:50:40.571Z,26.97
2023-05-31T09:51:40.987Z,26.98
2023-05-31T09:52:40.661Z,26.94
2023-05-31T09:53:40.712Z,26.95
2023-05-31T09:54:40.736Z,26.95
2023-05-31T09:55:40.796Z,26.94
2023-05-31T09:56:40.864Z,26.91
2023-05-31T09:57:40.874Z,26.93
2023-05-31T09:58:40.930Z,26.93
2023-05-31T09:59:40.958Z,26.93
2023-05-31T10:00:41.015Z,26.93
2023-05-31T10:01:41.507Z,26.90
2023-05-31T10:02:41.207Z,26.88
2023-05-31T10:03:41.219Z,26.88
2023-05-31T10:04:41.222Z,26.88
2023-05-31T10:05:41.278Z,26.88
2023-05-31T10:06:41.448Z,26.87
2023-05-31T10:07:41.400Z,26.88
2023-05-31T10:08:41.387Z,26.87
2023-05-31T10:09:41.419Z,26.87
2023-05-31T10:10:41.467Z,26.87
2023-05-31T10:11:41.967Z,26.87
2023-05-31T10:12:41.563Z,26.86
2023-05-31T10:13:41.634Z,26.87
2023-05-31T10:14:41.679Z,26.87
2023-05-31T10:15:41.745Z,26.86
2023-05-31T10:16:41.746Z,26.86
2023-05-31T10:17:42.011Z,26.83
2023-05-31T10:18:41.815Z,26.86
2023-05-31T10:19:41.894Z,26.86
2023-05-31T10:20:41.938Z,26.84
2023-05-31T10:21:41.990Z,26.83
2023-05-31T10:22:42.478Z,26.83
2023-05-31T10:23:42.112Z,26.84
2023-05-31T10:24:42.125Z,26.84
2023-05-31T10:25:42.174Z,26.81
2023-05-31T10:26:42.229Z,26.83
2023-05-31T10:27:42.472Z,26.81
2023-05-31T10:28:42.304Z,26.84
2023-05-31T10:29:42.962Z,26.83
2023-05-31T10:30:42.395Z,26.81
2023-05-31T10:31:42.443Z,26.81
2023-05-31T10:32:42.487Z,26.83
2023-05-31T10:33:42.483Z,26.80
2023-05-31T10:34:42.527Z,26.80
2023-05-31T10:35:42.613Z,26.80
2023-05-31T10:36:42.633Z,26.80
2023-05-31T10:37:43.001Z,26.80
2023-05-31T10:38:42.713Z,26.80
2023-05-31T10:39:42.772Z,26.79
2023-05-31T10:40:43.823Z,26.79
2023-05-31T10:41:42.885Z,26.79
2023-05-31T10:42:42.991Z,26.79
2023-05-31T10:43:43.019Z,26.79
2023-05-31T10:44:42.995Z,26.79
2023-05-31T10:45:43.068Z,26.79
2023-05-31T10:46:43.198Z,26.88
2023-05-31T10:47:43.516Z,26.93
2023-05-31T10:48:43.174Z,26.91
2023-05-31T10:49:43.214Z,26.97
2023-05-31T10:50:43.214Z,27.05
2023-05-31T10:51:43.237Z,27.15
2023-05-31T10:52:43.244Z,27.22
2023-05-31T10:53:43.200Z,27.30
2023-05-31T10:54:43.208Z,27.37
2023-05-31T10:55:43.253Z,27.40
2023-05-31T10:56:43.263Z,27.40
2023-05-31T10:57:43.507Z,27.46
2023-05-31T10:58:43.301Z,27.56
2023-05-31T10:59:43.347Z,27.61
2023-05-31T11:00:43.504Z,27.68
2023-05-31T11:01:43.473Z,27.72
2023-05-31T11:02:44.049Z,27.80
2023-05-31T11:03:43.616Z,27.85
2023-05-31T11:04:43.692Z,27.91
2023-05-31T11:05:43.666Z,27.98
2023-05-31T11:06:43.702Z,28.02
2023-05-31T11:07:43.970Z,28.08
2023-05-31T11:08:43.782Z,28.11
2023-05-31T11:09:43.843Z,28.18
2023-05-31T11:10:43.864Z,28.18
2023-05-31T11:11:43.891Z,28.22
2023-05-31T11:12:43.988Z,28.26
2023-05-31T11:13:43.946Z,28.27
2023-05-31T11:14:43.996Z,28.32
2023-05-31T11:15:43.991Z,28.33
2023-05-31T11:16:44.162Z,28.29
2023-05-31T11:17:44.531Z,28.27
2023-05-31T11:18:44.108Z,28.33
2023-05-31T11:19:44.081Z,28.36
2023-05-31T11:20:44.137Z,28.39
2023-05-31T11:21:44.124Z,28.40
2023-05-31T11:22:44.521Z,28.44
2023-05-31T11:23:44.130Z,28.46
2023-05-31T11:24:44.132Z,28.44
2023-05-31T11:25:44.185Z,28.53
2023-05-31T11:26:44.182Z,28.48
2023-05-31T11:27:44.506Z,28.51
2023-05-31T11:28:44.201Z,28.50
2023-05-31T11:29:44.204Z,28.53
2023-05-31T11:30:44.208Z,28.54
2023-05-31T11:31:44.247Z,28.53
2023-05-31T11:32:44.258Z,28.54
2023-05-31T11:33:57.497Z,28.55
2023-05-31T11:34:45.210Z,28.53
2023-05-31T11:35:44.279Z,28.51
2023-05-31T11:36:44.188Z,28.48
2023-05-31T11:37:44.543Z,28.46
2023-05-31T11:38:44.565Z,28.46
2023-05-31T11:39:44.234Z,28.43
2023-05-31T11:40:44.186Z,28.42
2023-05-31T11:41:44.194Z,28.37
2023-05-31T11:42:44.535Z,28.36
2023-05-31T11:43:44.173Z,28.30
2023-05-31T11:44:44.178Z,28.29
2023-05-31T11:45:44.152Z,28.33
2023-05-31T11:46:44.184Z,28.30
2023-05-31T11:47:44.197Z,28.33
2023-05-31T11:48:44.142Z,28.32
2023-05-31T11:49:44.109Z,28.30
2023-05-31T11:50:44.160Z,28.30
2023-05-31T11:51:44.187Z,28.32
2023-05-31T11:52:44.527Z,28.32
2023-05-31T11:53:44.228Z,28.29
2023-05-31T11:54:44.249Z,28.29
2023-05-31T11:55:44.307Z,28.27
2023-05-31T11:56:44.354Z,28.27
2023-05-31T11:57:44.549Z,28.23
2023-05-31T11:58:44.450Z,28.22
2023-05-31T11:59:44.498Z,28.19
2023-05-31T12:00:44.587Z,28.18
2023-05-31T12:01:44.610Z,28.16
2023-05-31T12:02:45.065Z,28.15
2023-05-31T12:03:45.033Z,28.15
2023-05-31T12:04:44.865Z,28.11
2023-05-31T12:05:44.832Z,28.09
2023-05-31T12:06:44.933Z,28.08
2023-05-31T12:07:45.013Z,28.08
2023-05-31T12:08:45.030Z,28.06
2023-05-31T12:09:45.095Z,28.05
2023-05-31T12:10:45.129Z,28.03
2023-05-31T12:11:45.174Z,28.02
2023-05-31T12:12:45.557Z,28.01
2023-05-31T12:13:45.208Z,28.01
2023-05-31T12:14:45.263Z,27.98
2023-05-31T12:15:45.321Z,27.98
2023-05-31T12:16:45.356Z,27.95
2023-05-31T12:17:45.522Z,27.95
2023-05-31T12:18:45.389Z,27.92
2023-05-31T12:19:45.327Z,27.94
2023-05-31T12:20:45.385Z,27.91
2023-05-31T12:21:45.387Z,27.89
2023-05-31T12:22:45.415Z,27.91
2023-05-31T12:23:45.396Z,27.89
2023-05-31T12:24:45.381Z,27.87
2023-05-31T12:25:45.445Z,27.88
2023-05-31T12:26:45.446Z,27.85
2023-05-31T12:27:46.634Z,27.85
2023-05-31T12:28:45.476Z,27.87
2023-05-31T12:29:45.529Z,27.85
2023-05-31T12:30:48.006Z,27.88
2023-05-31T12:31:45.577Z,27.83
2023-05-31T12:32:45.630Z,27.84
2023-05-31T12:33:45.531Z,27.85
2023-05-31T12:34:45.516Z,27.83
2023-05-31T12:35:45.497Z,27.83
2023-05-31T12:36:45.522Z,27.81
2023-05-31T12:37:45.521Z,27.78
2023-05-31T12:38:45.468Z,27.78
2023-05-31T12:39:45.494Z,27.75
2023-05-31T12:40:45.507Z,27.77
2023-05-31T12:41:45.498Z,27.77
2023-05-31T12:42:45.536Z,27.77
2023-05-31T12:43:45.462Z,27.74
2023-05-31T12:44:45.475Z,27.74
2023-05-31T12:45:45.477Z,27.70
2023-05-31T12:46:45.455Z,27.71
2023-05-31T12:47:45.520Z,27.72
2023-05-31T12:48:45.586Z,27.72
2023-05-31T12:49:45.418Z,27.68
2023-05-31T12:50:45.394Z,27.70
2023-05-31T12:51:45.427Z,27.68
2023-05-31T12:52:45.420Z,27.67
2023-05-31T12:53:45.365Z,27.65